createdAt,value
2022-08-09T00:00:00.426Z,14.20
2022-08-09T00:02:28.698Z,14.13
2022-08-09T00:05:03.520Z,14.09
2022-08-09T00:07:44.471Z,13.79
2022-08-09T00:10:18.154Z,13.65
2022-08-09T00:12:52.404Z,13.69
2022-08-09T00:15:35.350Z,13.70
2022-08-09T00:18:11.442Z,13.66
2022-08-09T00:20:42.255Z,13.71
2022-08-09T00:23:55.112Z,13.72
2022-08-09T00:26:06.127Z,13.70
2022-08-09T00:28:34.610Z,13.64
2022-08-09T00:31:30.402Z,13.29
2022-08-09T00:33:52.014Z,13.41
2022-08-09T00:36:29.538Z,13.42
2022-08-09T00:38:58.455Z,13.47
2022-08-09T00:44:10.922Z,13.53
2022-08-09T00:44:20.251Z,13.44
2022-08-09T00:47:05.456Z,13.42
2022-08-09T00:49:36.877Z,13.23
2022-08-09T00:52:17.346Z,13.04
2022-08-09T00:54:45.054Z,13.09
2022-08-09T00:57:12.029Z,13.11
2022-08-09T00:59:46.077Z,13.13
2022-08-09T01:02:20.775Z,13.25
2022-08-09T01:05:01.020Z,12.94
2022-08-09T01:08:00.613Z,13.07
2022-08-09T01:10:34.963Z,13.14
2022-08-09T01:13:12.098Z,12.87
2022-08-09T01:15:52.126Z,12.74
2022-08-09T01:18:29.752Z,12.86
2022-08-09T01:21:27.708Z,12.87
2022-08-09T01:24:33.296Z,12.87
2022-08-09T01:27:10.079Z,12.91
2022-08-09T01:29:55.775Z,12.89
2022-08-09T01:32:34.186Z,12.76
2022-08-09T01:35:28.573Z,12.47
2022-08-09T01:38:09.273Z,12.69
2022-08-09T01:40:42.950Z,12.68
2022-08-09T01:43:10.911Z,12.71
2022-08-09T01:45:44.768Z,12.70
2022-08-09T01:48:16.448Z,12.46
2022-08-09T01:50:48.619Z,12.61
2022-08-09T01:53:29.191Z,12.47
2022-08-09T01:56:09.985Z,12.49
2022-08-09T01:58:38.820Z,12.37
2022-08-09T02:01:07.911Z,12.46
2022-08-09T02:03:37.120Z,12.49
2022-08-09T02:06:07.285Z,12.31
2022-08-09T02:08:57.632Z,12.34
2022-08-09T02:11:41.956Z,12.37
2022-08-09T02:14:14.958Z,12.29
2022-08-09T02:17:00.067Z,12.41
2022-08-09T02:19:38.888Z,12.40
2022-08-09T02:22:35.972Z,12.35
2022-08-09T02:25:07.730Z,12.24
2022-08-09T02:27:57.471Z,12.21
2022-08-09T02:30:26.607Z,12.26
2022-08-09T02:32:55.016Z,12.33
2022-08-09T02:36:02.940Z,12.24
2022-08-09T02:38:27.902Z,12.19
2022-08-09T02:41:02.262Z,12.17
2022-08-09T02:43:53.743Z,12.18
2022-08-09T02:46:19.557Z,12.18
2022-08-09T02:48:47.614Z,12.16
2022-08-09T02:51:22.526Z,12.18
2022-08-09T02:54:01.118Z,12.15
2022-08-09T02:56:33.345Z,12.16
2022-08-09T02:59:03.602Z,12.13
2022-08-09T03:01:58.528Z,12.10
2022-08-09T03:04:20.670Z,12.07
2022-08-09T03:06:54.230Z,12.07
2022-08-09T03:09:22.213Z,12.00
2022-08-09T03:12:08.521Z,11.96
2022-08-09T03:14:39.332Z,11.92
2022-08-09T03:17:08.402Z,11.93
2022-08-09T03:19:57.812Z,11.90
2022-08-09T03:22:30.012Z,11.88
2022-08-09T03:25:06.255Z,11.86
2022-08-09T03:27:48.558Z,11.91
2022-08-09T03:30:29.670Z,11.88
2022-08-09T03:33:17.289Z,11.87
2022-08-09T03:36:13.447Z,11.82
2022-08-09T03:38:41.898Z,11.65
2022-08-09T03:41:15.247Z,11.71
2022-08-09T03:44:04.003Z,11.65
2022-08-09T03:46:30.595Z,11.71
2022-08-09T03:49:03.630Z,11.72
2022-08-09T03:51:56.665Z,11.74
2022-08-09T03:54:19.460Z,11.56
2022-08-09T03:56:58.192Z,11.48
2022-08-09T03:59:27.282Z,11.40
2022-08-09T04:02:10.509Z,11.43
2022-08-09T04:04:38.873Z,11.43
2022-08-09T04:07:06.165Z,11.43
2022-08-09T04:09:47.939Z,11.47
2022-08-09T04:12:31.034Z,11.36
2022-08-09T04:15:01.657Z,11.52
2022-08-09T04:17:29.412Z,11.57
2022-08-09T04:19:56.763Z,11.59
2022-08-09T04:22:23.623Z,11.59
2022-08-09T04:24:50.523Z,11.67
2022-08-09T04:27:22.124Z,11.72
2022-08-09T04:29:50.026Z,11.71
2022-08-09T04:32:23.545Z,11.75
2022-08-09T04:34:58.239Z,11.75
2022-08-09T04:37:45.192Z,11.80
2022-08-09T04:40:19.577Z,11.78
2022-08-09T04:43:01.162Z,11.75
2022-08-09T04:45:30.458Z,11.81
2022-08-09T04:48:03.091Z,11.83
2022-08-09T04:50:35.115Z,11.70
2022-08-09T04:53:13.053Z,11.85
2022-08-09T04:55:58.481Z,11.78
2022-08-09T04:58:31.804Z,11.77
2022-08-09T05:01:01.315Z,11.81
2022-08-09T05:03:40.798Z,11.87
2022-08-09T05:06:12.105Z,11.79
2022-08-09T05:08:59.841Z,11.68
2022-08-09T05:11:30.555Z,11.60
2022-08-09T05:13:59.149Z,11.73
2022-08-09T05:16:31.467Z,11.85
2022-08-09T05:19:00.124Z,11.80
2022-08-09T05:21:30.004Z,11.64
2022-08-09T05:24:04.629Z,11.78
2022-08-09T05:26:37.391Z,11.74
2022-08-09T05:29:24.215Z,11.69
2022-08-09T05:32:00.278Z,12.06
2022-08-09T05:34:30.060Z,12.25
2022-08-09T05:37:06.286Z,12.45
2022-08-09T05:39:36.149Z,12.57
2022-08-09T05:42:18.063Z,12.57
2022-08-09T05:44:52.818Z,12.34
2022-08-09T05:47:21.570Z,12.58
2022-08-09T05:50:29.933Z,12.85
2022-08-09T05:52:38.673Z,12.96
2022-08-09T05:55:08.529Z,12.95
2022-08-09T05:57:51.160Z,13.22
2022-08-09T06:00:23.535Z,13.39
2022-08-09T06:02:54.437Z,13.52
2022-08-09T06:05:31.149Z,13.88
2022-08-09T06:08:11.206Z,15.93
2022-08-09T06:10:38.445Z,19.75
2022-08-09T06:13:18.641Z,22.48
2022-08-09T06:15:51.321Z,23.60
2022-08-09T06:18:25.285Z,25.15
2022-08-09T06:20:57.963Z,25.24
2022-08-09T06:23:57.519Z,25.97
2022-08-09T06:26:20.829Z,25.37
2022-08-09T06:29:00.770Z,26.56
2022-08-09T06:31:39.374Z,26.79
2022-08-09T06:34:22.848Z,29.04
2022-08-09T06:36:57.377Z,27.64
2022-08-09T06:39:49.206Z,30.69
2022-08-09T06:42:14.318Z,31.60
2022-08-09T06:44:41.138Z,31.94
2022-08-09T06:47:08.515Z,31.38
2022-08-09T06:50:11.454Z,32.03
2022-08-09T06:52:23.567Z,32.66
2022-08-09T06:54:52.135Z,33.55
2022-08-09T06:57:25.753Z,34.90
2022-08-09T07:00:52.250Z,34.46
2022-08-09T07:02:55.511Z,33.91
2022-08-09T07:05:24.534Z,33.02
2022-08-09T07:08:11.204Z,34.61
2022-08-09T07:10:38.544Z,36.14
2022-08-09T07:13:27.541Z,30.09
2022-08-09T07:16:36.332Z,30.84
2022-08-09T07:18:39.017Z,32.76
2022-08-09T07:21:07.873Z,35.09
2022-08-09T07:23:36.115Z,35.66
2022-08-09T07:26:04.273Z,33.14
2022-08-09T07:28:34.657Z,34.00
2022-08-09T07:31:04.768Z,36.08
2022-08-09T07:33:53.264Z,36.52
2022-08-09T07:36:19.687Z,36.06
2022-08-09T07:38:52.601Z,36.59
2022-08-09T07:41:26.071Z,35.68
2022-08-09T07:43:56.223Z,25.69
2022-08-09T07:46:27.814Z,29.24
2022-08-09T07:48:59.347Z,32.55
2022-08-09T07:52:04.544Z,29.77
2022-08-09T07:54:14.823Z,34.32
2022-08-09T07:56:50.013Z,28.86
2022-08-09T07:59:25.450Z,30.78
2022-08-09T08:02:00.941Z,30.74
2022-08-09T08:04:32.300Z,29.89
2022-08-09T08:07:15.172Z,32.55
2022-08-09T08:09:55.211Z,34.45
2022-08-09T08:12:35.614Z,32.07
2022-08-09T08:15:04.532Z,31.40
2022-08-09T08:17:52.000Z,27.53
2022-08-09T08:20:28.834Z,28.52
2022-08-09T08:22:58.772Z,27.84
2022-08-09T08:25:44.816Z,26.33
2022-08-09T08:28:15.163Z,31.75
2022-08-09T08:30:44.226Z,30.66
2022-08-09T08:33:12.031Z,31.83
2022-08-09T08:35:59.327Z,33.36
2022-08-09T08:38:28.642Z,28.50
2022-08-09T08:40:57.314Z,32.60
2022-08-09T08:43:27.218Z,31.79
2022-08-09T08:46:25.052Z,28.93
2022-08-09T08:48:53.344Z,27.03
2022-08-09T08:51:22.900Z,29.54
2022-08-09T08:54:04.407Z,29.08
2022-08-09T08:56:41.400Z,30.34
2022-08-09T08:59:18.810Z,31.54
2022-08-09T09:01:52.405Z,30.49
2022-08-09T09:04:27.701Z,32.64
2022-08-09T09:06:58.105Z,27.60
2022-08-09T09:09:57.968Z,29.63
2022-08-09T09:12:17.127Z,31.25
2022-08-09T09:14:45.513Z,29.92
2022-08-09T09:17:13.053Z,29.78
2022-08-09T09:19:44.373Z,27.42
2022-08-09T09:22:16.504Z,27.93
2022-08-09T09:24:45.863Z,28.50
2022-08-09T09:28:04.212Z,27.44
2022-08-09T09:30:26.224Z,28.96
2022-08-09T09:33:15.549Z,30.05
2022-08-09T09:36:02.383Z,29.01
2022-08-09T09:38:50.385Z,28.31
2022-08-09T09:41:23.189Z,24.11
2022-08-09T09:44:11.850Z,28.10
2022-08-09T09:46:42.249Z,28.25
2022-08-09T09:49:12.076Z,29.02
2022-08-09T09:51:40.577Z,28.31
2022-08-09T09:54:19.057Z,32.20
2022-08-09T09:58:00.499Z,31.51
2022-08-09T09:59:39.693Z,29.38
2022-08-09T10:02:06.596Z,26.05
2022-08-09T10:04:34.812Z,28.95
2022-08-09T10:07:10.036Z,30.93
2022-08-09T10:09:54.865Z,25.30
2022-08-09T10:12:31.541Z,30.28
2022-08-09T10:15:07.642Z,28.34
2022-08-09T10:17:50.542Z,27.17
2022-08-09T10:20:33.129Z,30.69
2022-08-09T10:23:22.552Z,29.48
2022-08-09T10:26:06.585Z,30.12
2022-08-09T10:28:38.228Z,31.75
2022-08-09T10:34:11.106Z,34.04
2022-08-09T10:36:43.146Z,32.29
2022-08-09T10:39:15.825Z,29.99
2022-08-09T10:41:46.018Z,32.44
2022-08-09T10:44:18.307Z,29.26
2022-08-09T10:48:10.114Z,30.22
2022-08-09T10:50:23.702Z,27.52
2022-08-09T10:53:04.273Z,30.03
2022-08-09T10:55:55.773Z,29.33
2022-08-09T10:58:37.382Z,28.16
2022-08-09T11:03:14.334Z,26.42
2022-08-09T11:04:20.091Z,27.22
2022-08-09T11:07:00.143Z,24.94
2022-08-09T11:09:41.271Z,27.65
2022-08-09T11:12:20.037Z,25.48
2022-08-09T11:14:58.202Z,25.37
2022-08-09T11:17:25.120Z,24.57
2022-08-09T11:20:07.999Z,24.40
2022-08-09T11:22:41.655Z,24.65
2022-08-09T11:25:11.522Z,25.21
2022-08-09T11:28:04.791Z,24.18
2022-08-09T11:30:33.429Z,24.60
2022-08-09T11:33:05.911Z,24.21
2022-08-09T11:35:49.630Z,24.80
2022-08-09T11:38:32.339Z,25.67
2022-08-09T11:41:37.905Z,25.55
2022-08-09T11:44:07.452Z,26.07
2022-08-09T11:46:57.745Z,26.10
2022-08-09T11:50:53.452Z,25.91
2022-08-09T11:53:57.924Z,24.91
2022-08-09T11:55:53.413Z,25.41
2022-08-09T11:58:32.391Z,25.65
2022-08-09T12:01:05.776Z,25.03
2022-08-09T12:03:57.272Z,25.35
2022-08-09T12:06:26.547Z,26.26
2022-08-09T12:08:56.057Z,25.29
2022-08-09T12:11:26.555Z,26.19
2022-08-09T12:14:07.046Z,26.40
2022-08-09T12:16:42.961Z,25.58
2022-08-09T12:19:13.050Z,25.47
2022-08-09T12:21:50.771Z,25.88
2022-08-09T12:24:25.029Z,26.34
2022-08-09T12:29:13.893Z,27.05
2022-08-09T12:30:02.102Z,26.86
2022-08-09T12:32:41.611Z,26.01
2022-08-09T12:35:10.886Z,26.50
2022-08-09T12:37:50.664Z,26.79
2022-08-09T12:40:23.023Z,25.60
2022-08-09T12:42:51.392Z,24.58
2022-08-09T12:45:33.889Z,25.08
2022-08-09T12:48:03.476Z,26.30
2022-08-09T12:50:30.916Z,26.69
2022-08-09T12:53:09.400Z,25.89
2022-08-09T12:56:15.186Z,25.72
2022-08-09T12:58:31.004Z,25.63
2022-08-09T13:00:58.740Z,26.92
2022-08-09T13:03:57.097Z,26.66
2022-08-09T13:06:34.282Z,27.04
2022-08-09T13:09:04.325Z,27.10
2022-08-09T13:11:35.542Z,26.28
2022-08-09T13:14:41.499Z,25.30
2022-08-09T13:17:08.583Z,26.22
2022-08-09T13:20:08.397Z,26.46
2022-08-09T13:22:35.196Z,26.74
2022-08-09T13:25:07.516Z,27.79
2022-08-09T13:27:39.664Z,27.58
2022-08-09T13:31:11.036Z,27.18
2022-08-09T13:33:06.935Z,26.73
2022-08-09T13:36:37.917Z,26.42
2022-08-09T13:38:54.639Z,25.70
2022-08-09T13:41:51.669Z,26.77
2022-08-09T13:43:58.783Z,27.47
2022-08-09T13:47:16.860Z,27.41
2022-08-09T13:49:18.507Z,27.75
2022-08-09T13:52:00.640Z,26.29
2022-08-09T13:54:30.263Z,26.06
2022-08-09T13:56:57.377Z,26.61
2022-08-09T13:59:25.705Z,27.09
2022-08-09T14:02:04.006Z,26.66
2022-08-09T14:04:31.094Z,26.23
2022-08-09T14:07:01.147Z,26.29
2022-08-09T14:09:35.606Z,26.14
2022-08-09T14:12:15.591Z,26.06
2022-08-09T14:14:43.917Z,26.02
2022-08-09T14:17:12.648Z,26.22
2022-08-09T14:19:39.367Z,26.63
2022-08-09T14:22:07.406Z,27.26
2022-08-09T14:24:35.978Z,27.03
2022-08-09T14:27:19.684Z,26.86
2022-08-09T14:30:35.226Z,26.92
2022-08-09T14:32:33.616Z,26.94
2022-08-09T14:35:06.095Z,26.94
2022-08-09T14:37:41.318Z,25.86
2022-08-09T14:40:19.478Z,26.08
2022-08-09T14:43:05.880Z,26.17
2022-08-09T14:46:58.036Z,26.84
2022-08-09T14:48:19.228Z,27.00
2022-08-09T14:50:47.905Z,26.65
2022-08-09T14:53:15.807Z,26.44
2022-08-09T14:55:48.030Z,26.62
2022-08-09T14:58:17.664Z,25.98
2022-08-09T15:00:47.968Z,26.28
2022-08-09T15:03:20.361Z,27.12
2022-08-09T15:05:52.516Z,26.80
2022-08-09T15:08:24.281Z,25.98
2022-08-09T15:11:01.115Z,26.23
2022-08-09T15:13:47.783Z,26.23
2022-08-09T15:16:15.783Z,25.99
2022-08-09T15:18:42.599Z,26.13
2022-08-09T15:21:55.627Z,26.61
2022-08-09T15:24:05.979Z,26.03
2022-08-09T15:26:46.248Z,26.29
2022-08-09T15:30:48.831Z,26.01
2022-08-09T15:32:00.983Z,26.08
2022-08-09T15:34:34.334Z,26.30
2022-08-09T15:37:04.324Z,26.09
2022-08-09T15:39:43.977Z,26.32
2022-08-09T15:42:19.210Z,26.43
2022-08-09T15:44:46.570Z,25.86
2022-08-09T15:47:14.579Z,25.85
2022-08-09T15:50:03.508Z,25.65
2022-08-09T15:52:33.592Z,26.01
2022-08-09T15:55:00.676Z,26.32
2022-08-09T15:57:35.350Z,26.53
2022-08-09T16:00:14.221Z,26.40
2022-08-09T16:02:53.459Z,26.33
2022-08-09T16:05:23.020Z,26.63
2022-08-09T16:07:50.790Z,25.61
2022-08-09T16:10:54.942Z,26.05
2022-08-09T16:13:18.523Z,26.06
2022-08-09T16:16:10.446Z,26.28
2022-08-09T16:18:34.977Z,25.73
2022-08-09T16:21:01.853Z,26.19
2022-08-09T16:23:28.592Z,26.03
2022-08-09T16:26:00.978Z,25.57
2022-08-09T16:28:29.771Z,26.04
2022-08-09T16:30:59.298Z,25.95
2022-08-09T16:33:27.024Z,25.65
2022-08-09T16:35:59.729Z,25.42
2022-08-09T16:38:29.599Z,25.36
2022-08-09T16:40:56.646Z,25.02
2022-08-09T16:43:24.581Z,25.55
2022-08-09T16:45:54.158Z,25.84
2022-08-09T16:48:39.565Z,25.90
2022-08-09T16:51:14.344Z,26.06
2022-08-09T16:56:34.365Z,24.98
2022-08-09T16:59:10.399Z,25.11
2022-08-09T17:01:37.811Z,25.07
2022-08-09T17:04:06.678Z,25.10
2022-08-09T17:06:47.393Z,25.11
2022-08-09T17:09:45.294Z,24.53
2022-08-09T17:12:07.984Z,25.05
2022-08-09T17:14:34.721Z,25.24
2022-08-09T17:17:03.906Z,25.07
2022-08-09T17:20:33.260Z,24.98
2022-08-09T17:22:38.696Z,24.78
2022-08-09T17:25:17.218Z,24.70
2022-08-09T17:27:49.565Z,24.57
2022-08-09T17:30:27.974Z,24.76
2022-08-09T17:33:00.624Z,24.77
2022-08-09T17:35:29.048Z,24.70
2022-08-09T17:38:12.603Z,24.43
2022-08-09T17:40:46.331Z,24.58
2022-08-09T17:43:33.699Z,24.55
2022-08-09T17:46:04.115Z,24.49
2022-08-09T17:48:39.896Z,24.20
2022-08-09T17:51:18.338Z,24.17
2022-08-09T17:53:51.829Z,24.11
2022-08-09T17:56:27.936Z,24.04
2022-08-09T17:58:57.149Z,23.99
2022-08-09T18:01:24.100Z,23.68
2022-08-09T18:03:52.623Z,23.51
2022-08-09T18:06:31.089Z,23.56
2022-08-09T18:08:58.521Z,23.42
2022-08-09T18:11:25.836Z,23.52
2022-08-09T18:13:58.825Z,23.35
2022-08-09T18:16:30.637Z,23.23
2022-08-09T18:19:04.111Z,23.26
2022-08-09T18:21:50.407Z,23.11
2022-08-09T18:24:19.525Z,23.21
2022-08-09T18:26:48.059Z,23.19
2022-08-09T18:30:38.040Z,22.97
2022-08-09T18:32:05.114Z,22.99
2022-08-09T18:34:35.130Z,22.90
2022-08-09T18:37:03.883Z,22.80
2022-08-09T18:39:32.166Z,22.70
2022-08-09T18:42:01.751Z,22.54
2022-08-09T18:44:29.052Z,22.55
2022-08-09T18:47:05.409Z,22.45
2022-08-09T18:49:43.289Z,22.41
2022-08-09T18:52:13.958Z,22.34
2022-08-09T18:54:45.837Z,22.16
2022-08-09T18:57:21.950Z,21.96
2022-08-09T18:59:55.436Z,21.78
2022-08-09T19:02:23.938Z,21.56
2022-08-09T19:05:03.983Z,21.45
2022-08-09T19:07:51.527Z,21.35
2022-08-09T19:10:29.107Z,21.21
2022-08-09T19:13:21.990Z,21.25
2022-08-09T19:15:55.824Z,20.91
2022-08-09T19:18:35.219Z,20.81
2022-08-09T19:21:09.307Z,20.71
2022-08-09T19:24:32.424Z,20.60
2022-08-09T19:26:31.337Z,20.30
2022-08-09T19:29:15.239Z,20.32
2022-08-09T19:31:46.518Z,20.38
2022-08-09T19:34:23.027Z,20.18
2022-08-09T19:36:52.989Z,20.11
2022-08-09T19:39:44.015Z,20.11
2022-08-09T19:42:07.304Z,20.06
2022-08-09T19:44:34.095Z,19.88
2022-08-09T19:47:01.696Z,19.80
2022-08-09T19:50:09.150Z,19.78
2022-08-09T19:52:15.613Z,19.74
2022-08-09T19:54:45.331Z,19.70
2022-08-09T19:57:12.299Z,19.58
2022-08-09T20:00:01.886Z,19.54
2022-08-09T20:04:23.810Z,19.48
2022-08-09T20:05:16.681Z,19.38
2022-08-09T20:07:57.090Z,19.27
2022-08-09T20:10:34.742Z,19.27
2022-08-09T20:13:05.221Z,19.10
2022-08-09T20:16:36.847Z,18.44
2022-08-09T20:18:20.185Z,18.67
2022-08-09T20:20:51.277Z,18.79
2022-08-09T20:23:23.708Z,18.84
2022-08-09T20:25:53.506Z,18.85
2022-08-09T20:28:27.788Z,18.79
2022-08-09T20:31:04.875Z,18.68
2022-08-09T20:33:39.126Z,18.46
2022-08-09T20:36:11.157Z,18.40
2022-08-09T20:39:00.291Z,18.40
2022-08-09T20:41:31.995Z,18.21
2022-08-09T20:44:02.452Z,18.16
2022-08-09T20:46:42.421Z,18.16
2022-08-09T20:49:11.444Z,18.10
2022-08-09T20:51:41.331Z,18.10
2022-08-09T20:54:10.524Z,17.98
2022-08-09T20:56:41.004Z,17.91
2022-08-09T20:59:07.846Z,17.96
2022-08-09T21:01:51.569Z,17.89
2022-08-09T21:05:50.982Z,17.87
2022-08-09T21:07:13.195Z,17.81
2022-08-09T21:09:56.597Z,17.76
2022-08-09T21:15:17.345Z,17.39
2022-08-09T21:18:23.587Z,17.20
2022-08-09T21:20:37.059Z,17.19
2022-08-09T21:23:10.850Z,17.27
2022-08-09T21:25:56.130Z,17.26
2022-08-09T21:28:36.105Z,17.15
2022-08-09T21:31:13.499Z,17.18
2022-08-09T21:33:50.469Z,16.90
2022-08-09T21:36:23.514Z,16.89
2022-08-09T21:38:57.259Z,16.80
2022-08-09T21:42:05.854Z,16.97
2022-08-09T21:44:33.168Z,16.90
2022-08-09T21:47:03.724Z,16.83
2022-08-09T21:49:40.054Z,16.76
2022-08-09T21:52:17.897Z,16.56
2022-08-09T21:54:56.974Z,16.44
2022-08-09T21:57:38.845Z,16.36
2022-08-09T22:00:32.370Z,16.22
2022-08-09T22:03:02.673Z,16.16
2022-08-09T22:05:37.688Z,16.18
2022-08-09T22:08:13.856Z,16.22
2022-08-09T22:11:04.849Z,16.15
2022-08-09T22:13:36.929Z,16.00
2022-08-09T22:16:08.804Z,15.82
2022-08-09T22:18:37.744Z,16.02
2022-08-09T22:21:10.018Z,16.07
2022-08-09T22:23:58.895Z,16.06
2022-08-09T22:26:34.010Z,16.13
2022-08-09T22:29:05.281Z,15.98
2022-08-09T22:31:34.651Z,15.94
2022-08-09T22:34:01.506Z,15.73
2022-08-09T22:36:28.274Z,15.77
2022-08-09T22:39:04.400Z,15.61
2022-08-09T22:41:31.229Z,15.50
2022-08-09T22:44:03.697Z,15.63
2022-08-09T22:48:12.886Z,15.57
2022-08-09T22:49:18.817Z,15.70
2022-08-09T22:51:56.361Z,15.41
2022-08-09T22:54:27.192Z,15.50
2022-08-09T22:56:57.109Z,15.45
2022-08-09T22:59:57.101Z,15.33
2022-08-09T23:02:15.175Z,15.26
2022-08-09T23:04:54.240Z,15.30
2022-08-09T23:08:22.352Z,15.30
2022-08-09T23:10:31.611Z,15.23
2022-08-09T23:12:58.945Z,15.34
2022-08-09T23:15:26.237Z,15.41
2022-08-09T23:17:52.911Z,15.19
2022-08-09T23:20:19.646Z,15.14
2022-08-09T23:22:46.318Z,15.22
2022-08-09T23:25:13.049Z,15.48
2022-08-09T23:28:14.470Z,15.65
2022-08-09T23:30:26.488Z,15.89
2022-08-09T23:32:53.179Z,16.11
2022-08-09T23:35:19.939Z,16.17
2022-08-09T23:37:46.669Z,15.30
2022-08-09T23:40:13.793Z,15.21
2022-08-09T23:42:40.678Z,15.46
2022-08-09T23:45:08.868Z,15.24
2022-08-09T23:47:35.707Z,15.20
2022-08-09T23:50:02.642Z,15.57
2022-08-09T23:52:29.353Z,15.08
2022-08-09T23:54:57.680Z,15.26
2022-08-09T23:57:24.403Z,15.17
